sensor_id;sensor_type;location;lat;lon;timestamp;pressure;altitude;pressure_sealevel;temperature;humidity
76551;BME280;65393;53.160;18.170;2023-01-24T00:01:28;103824.98;;;-0.31;85.67
76551;BME280;65393;53.160;18.170;2023-01-24T00:03:55;103827.73;;;-0.32;85.57
76551;BME280;65393;53.160;18.170;2023-01-24T00:06:22;103827.79;;;-0.31;85.90
76551;BME280;65393;53.160;18.170;2023-01-24T00:08:48;103827.91;;;-0.28;85.86
76551;BME280;65393;53.160;18.170;2023-01-24T00:11:15;103829.76;;;-0.27;85.79
76551;BME280;65393;53.160;18.170;2023-01-24T00:13:42;103825.75;;;-0.27;85.96
76551;BME280;65393;53.160;18.170;2023-01-24T00:16:17;103822.33;;;-0.28;85.92
76551;BME280;65393;53.160;18.170;2023-01-24T00:18:45;103818.65;;;-0.28;86.15
76551;BME280;65393;53.160;18.170;2023-01-24T00:21:14;103816.15;;;-0.29;86.07
76551;BME280;65393;53.160;18.170;2023-01-24T00:23:45;103816.35;;;-0.29;86.00
76551;BME280;65393;53.160;18.170;2023-01-24T00:26:12;103822.11;;;-0.29;85.99
76551;BME280;65393;53.160;18.170;2023-01-24T00:28:41;103822.93;;;-0.30;86.03
76551;BME280;65393;53.160;18.170;2023-01-24T00:31:08;103819.45;;;-0.30;85.84
76551;BME280;65393;53.160;18.170;2023-01-24T00:33:34;103815.85;;;-0.32;85.93
76551;BME280;65393;53.160;18.170;2023-01-24T00:36:02;103815.52;;;-0.32;85.90
76551;BME280;65393;53.160;18.170;2023-01-24T00:38:29;103814.83;;;-0.32;85.76
76551;BME280;65393;53.160;18.170;2023-01-24T00:40:57;103811.85;;;-0.32;85.92
76551;BME280;65393;53.160;18.170;2023-01-24T00:43:24;103812.56;;;-0.31;85.81
76551;BME280;65393;53.160;18.170;2023-01-24T00:45:53;103814.41;;;-0.33;85.82
76551;BME280;65393;53.160;18.170;2023-01-24T00:48:22;103806.58;;;-0.33;86.08
76551;BME280;65393;53.160;18.170;2023-01-24T00:50:49;103805.22;;;-0.32;85.95
76551;BME280;65393;53.160;18.170;2023-01-24T00:53:16;103804.91;;;-0.31;86.06
76551;BME280;65393;53.160;18.170;2023-01-24T00:55:45;103805.23;;;-0.31;85.90
76551;BME280;65393;53.160;18.170;2023-01-24T00:58:13;103807.85;;;-0.31;85.91
76551;BME280;65393;53.160;18.170;2023-01-24T01:00:40;103809.33;;;-0.30;85.94
76551;BME280;65393;53.160;18.170;2023-01-24T01:03:12;103811.52;;;-0.28;85.74
76551;BME280;65393;53.160;18.170;2023-01-24T01:05:39;103813.20;;;-0.29;85.61
76551;BME280;65393;53.160;18.170;2023-01-24T01:08:06;103815.88;;;-0.31;86.20
76551;BME280;65393;53.160;18.170;2023-01-24T01:10:33;103820.58;;;-0.32;86.07
76551;BME280;65393;53.160;18.170;2023-01-24T01:13:00;103823.80;;;-0.30;86.01
76551;BME280;65393;53.160;18.170;2023-01-24T01:15:28;103822.63;;;-0.29;85.89
76551;BME280;65393;53.160;18.170;2023-01-24T01:17:56;103817.39;;;-0.29;86.03
76551;BME280;65393;53.160;18.170;2023-01-24T01:20:23;103818.76;;;-0.29;85.69
76551;BME280;65393;53.160;18.170;2023-01-24T01:22:50;103821.02;;;-0.29;86.03
76551;BME280;65393;53.160;18.170;2023-01-24T01:25:17;103820.02;;;-0.29;85.87
76551;BME280;65393;53.160;18.170;2023-01-24T01:27:44;103818.89;;;-0.27;85.97
76551;BME280;65393;53.160;18.170;2023-01-24T01:30:11;103814.39;;;-0.27;85.90
76551;BME280;65393;53.160;18.170;2023-01-24T01:32:38;103812.55;;;-0.25;85.84
76551;BME280;65393;53.160;18.170;2023-01-24T01:35:05;103811.58;;;-0.27;86.12
76551;BME280;65393;53.160;18.170;2023-01-24T01:37:32;103815.60;;;-0.30;85.77
76551;BME280;65393;53.160;18.170;2023-01-24T01:39:59;103816.45;;;-0.30;86.06
76551;BME280;65393;53.160;18.170;2023-01-24T01:42:25;103815.91;;;-0.31;85.85
76551;BME280;65393;53.160;18.170;2023-01-24T01:44:54;103818.16;;;-0.31;85.95
76551;BME280;65393;53.160;18.170;2023-01-24T01:47:33;103821.69;;;-0.30;85.97
76551;BME280;65393;53.160;18.170;2023-01-24T01:50:23;103820.45;;;-0.31;85.80
76551;BME280;65393;53.160;18.170;2023-01-24T01:52:52;103821.77;;;-0.32;85.78
76551;BME280;65393;53.160;18.170;2023-01-24T01:55:21;103821.39;;;-0.33;85.79
76551;BME280;65393;53.160;18.170;2023-01-24T01:57:51;103814.52;;;-0.34;85.61
76551;BME280;65393;53.160;18.170;2023-01-24T02:00:23;103818.34;;;-0.34;85.72
76551;BME280;65393;53.160;18.170;2023-01-24T02:02:57;103820.55;;;-0.32;85.77
76551;BME280;65393;53.160;18.170;2023-01-24T02:05:47;103818.52;;;-0.31;86.00
76551;BME280;65393;53.160;18.170;2023-01-24T02:08:22;103819.77;;;-0.30;85.56
76551;BME280;65393;53.160;18.170;2023-01-24T02:10:53;103818.55;;;-0.34;86.09
76551;BME280;65393;53.160;18.170;2023-01-24T02:13:41;103819.05;;;-0.34;85.99
76551;BME280;65393;53.160;18.170;2023-01-24T02:16:12;103823.16;;;-0.32;85.87
76551;BME280;65393;53.160;18.170;2023-01-24T02:18:40;103821.17;;;-0.30;85.79
76551;BME280;65393;53.160;18.170;2023-01-24T02:21:11;103820.29;;;-0.27;85.64
76551;BME280;65393;53.160;18.170;2023-01-24T02:23:50;103819.27;;;-0.27;85.67
76551;BME280;65393;53.160;18.170;2023-01-24T02:26:22;103821.59;;;-0.26;85.58
76551;BME280;65393;53.160;18.170;2023-01-24T02:28:59;103825.27;;;-0.25;85.85
76551;BME280;65393;53.160;18.170;2023-01-24T02:31:27;103819.84;;;-0.26;85.71
76551;BME280;65393;53.160;18.170;2023-01-24T02:33:54;103822.12;;;-0.29;85.83
76551;BME280;65393;53.160;18.170;2023-01-24T02:39:03;103831.35;;;-0.32;85.67
76551;BME280;65393;53.160;18.170;2023-01-24T02:41:36;103829.66;;;-0.34;85.87
76551;BME280;65393;53.160;18.170;2023-01-24T02:44:09;103830.57;;;-0.34;85.63
76551;BME280;65393;53.160;18.170;2023-01-24T02:46:42;103829.34;;;-0.34;85.58
76551;BME280;65393;53.160;18.170;2023-01-24T02:49:10;103826.29;;;-0.33;85.74
76551;BME280;65393;53.160;18.170;2023-01-24T02:51:37;103826.29;;;-0.33;85.54
76551;BME280;65393;53.160;18.170;2023-01-24T02:54:23;103828.16;;;-0.33;85.61
76551;BME280;65393;53.160;18.170;2023-01-24T02:56:50;103829.38;;;-0.33;85.36
76551;BME280;65393;53.160;18.170;2023-01-24T02:59:35;103833.38;;;-0.34;85.48
76551;BME280;65393;53.160;18.170;2023-01-24T03:02:02;103833.77;;;-0.36;85.38
76551;BME280;65393;53.160;18.170;2023-01-24T03:04:29;103833.13;;;-0.38;85.25
76551;BME280;65393;53.160;18.170;2023-01-24T03:06:56;103832.39;;;-0.36;85.30
76551;BME280;65393;53.160;18.170;2023-01-24T03:09:22;103833.45;;;-0.35;85.22
76551;BME280;65393;53.160;18.170;2023-01-24T03:12:01;103830.91;;;-0.34;85.07
76551;BME280;65393;53.160;18.170;2023-01-24T03:14:48;103827.08;;;-0.34;84.87
76551;BME280;65393;53.160;18.170;2023-01-24T03:17:34;103820.63;;;-0.34;84.83
76551;BME280;65393;53.160;18.170;2023-01-24T03:20:19;103825.62;;;-0.35;84.84
76551;BME280;65393;53.160;18.170;2023-01-24T03:23:05;103826.73;;;-0.37;85.00
76551;BME280;65393;53.160;18.170;2023-01-24T03:25:54;103824.19;;;-0.39;84.58
76551;BME280;65393;53.160;18.170;2023-01-24T03:28:41;103823.14;;;-0.42;84.88
76551;BME280;65393;53.160;18.170;2023-01-24T03:31:28;103818.66;;;-0.41;84.67
76551;BME280;65393;53.160;18.170;2023-01-24T03:34:13;103816.32;;;-0.39;84.72
76551;BME280;65393;53.160;18.170;2023-01-24T03:36:57;103815.71;;;-0.37;84.66
76551;BME280;65393;53.160;18.170;2023-01-24T03:39:24;103817.51;;;-0.37;84.61
76551;BME280;65393;53.160;18.170;2023-01-24T03:42:09;103820.02;;;-0.38;84.50
76551;BME280;65393;53.160;18.170;2023-01-24T03:44:37;103820.95;;;-0.38;84.44
76551;BME280;65393;53.160;18.170;2023-01-24T03:47:04;103817.64;;;-0.37;84.73
76551;BME280;65393;53.160;18.170;2023-01-24T03:49:31;103812.44;;;-0.37;84.65
76551;BME280;65393;53.160;18.170;2023-01-24T03:52:16;103805.63;;;-0.37;84.31
76551;BME280;65393;53.160;18.170;2023-01-24T03:54:58;103800.94;;;-0.33;84.06
76551;BME280;65393;53.160;18.170;2023-01-24T03:57:27;103800.55;;;-0.31;84.00
76551;BME280;65393;53.160;18.170;2023-01-24T03:59:54;103796.08;;;-0.30;84.29
76551;BME280;65393;53.160;18.170;2023-01-24T04:02:21;103793.12;;;-0.29;84.13
76551;BME280;65393;53.160;18.170;2023-01-24T04:04:48;103793.20;;;-0.28;84.19
76551;BME280;65393;53.160;18.170;2023-01-24T04:07:34;103796.70;;;-0.28;84.09
76551;BME280;65393;53.160;18.170;2023-01-24T04:10:04;103800.59;;;-0.27;84.48
76551;BME280;65393;53.160;18.170;2023-01-24T04:12:37;103797.27;;;-0.24;84.37
76551;BME280;65393;53.160;18.170;2023-01-24T04:15:04;103791.88;;;-0.24;84.21
76551;BME280;65393;53.160;18.170;2023-01-24T04:17:31;103796.45;;;-0.23;83.87
76551;BME280;65393;53.160;18.170;2023-01-24T04:19:58;103798.80;;;-0.25;83.79
76551;BME280;65393;53.160;18.170;2023-01-24T04:22:25;103800.18;;;-0.25;84.12
76551;BME280;65393;53.160;18.170;2023-01-24T04:24:54;103800.34;;;-0.22;83.84
76551;BME280;65393;53.160;18.170;2023-01-24T04:27:21;103801.17;;;-0.23;83.59
76551;BME280;65393;53.160;18.170;2023-01-24T04:30:17;103801.38;;;-0.23;83.80
76551;BME280;65393;53.160;18.170;2023-01-24T04:32:47;103808.99;;;-0.24;83.56
76551;BME280;65393;53.160;18.170;2023-01-24T04:35:22;103803.88;;;-0.24;83.27
76551;BME280;65393;53.160;18.170;2023-01-24T04:37:51;103808.48;;;-0.29;83.47
76551;BME280;65393;53.160;18.170;2023-01-24T04:40:32;103805.59;;;-0.31;83.58
76551;BME280;65393;53.160;18.170;2023-01-24T04:42:59;103808.40;;;-0.31;83.40
76551;BME280;65393;53.160;18.170;2023-01-24T04:45:25;103808.20;;;-0.32;83.50
76551;BME280;65393;53.160;18.170;2023-01-24T04:47:54;103800.85;;;-0.32;83.81
76551;BME280;65393;53.160;18.170;2023-01-24T04:50:21;103801.38;;;-0.32;83.69
76551;BME280;65393;53.160;18.170;2023-01-24T04:52:48;103805.09;;;-0.31;83.65
76551;BME280;65393;53.160;18.170;2023-01-24T04:55:15;103807.75;;;-0.33;83.24
76551;BME280;65393;53.160;18.170;2023-01-24T04:57:42;103810.04;;;-0.33;83.55
76551;BME280;65393;53.160;18.170;2023-01-24T05:00:10;103807.83;;;-0.32;83.50
76551;BME280;65393;53.160;18.170;2023-01-24T05:02:37;103804.45;;;-0.33;83.61
76551;BME280;65393;53.160;18.170;2023-01-24T05:05:06;103799.82;;;-0.34;83.54
76551;BME280;65393;53.160;18.170;2023-01-24T05:07:33;103802.15;;;-0.33;83.36
76551;BME280;65393;53.160;18.170;2023-01-24T05:10:05;103805.34;;;-0.33;83.26
76551;BME280;65393;53.160;18.170;2023-01-24T05:12:33;103811.52;;;-0.32;82.94
76551;BME280;65393;53.160;18.170;2023-01-24T05:15:02;103813.48;;;-0.30;83.12
76551;BME280;65393;53.160;18.170;2023-01-24T05:17:29;103810.88;;;-0.30;82.85
76551;BME280;65393;53.160;18.170;2023-01-24T05:19:56;103815.95;;;-0.30;82.69
76551;BME280;65393;53.160;18.170;2023-01-24T05:22:23;103821.95;;;-0.29;83.10
76551;BME280;65393;53.160;18.170;2023-01-24T05:24:50;103823.08;;;-0.27;82.95
76551;BME280;65393;53.160;18.170;2023-01-24T05:27:17;103820.48;;;-0.27;83.04
76551;BME280;65393;53.160;18.170;2023-01-24T05:29:46;103821.61;;;-0.28;83.02
76551;BME280;65393;53.160;18.170;2023-01-24T05:32:13;103826.60;;;-0.33;82.85
76551;BME280;65393;53.160;18.170;2023-01-24T05:34:41;103826.68;;;-0.38;82.54
76551;BME280;65393;53.160;18.170;2023-01-24T05:37:08;103825.29;;;-0.38;82.51
76551;BME280;65393;53.160;18.170;2023-01-24T05:39:35;103819.27;;;-0.39;82.44
76551;BME280;65393;53.160;18.170;2023-01-24T05:42:02;103817.98;;;-0.41;82.42
76551;BME280;65393;53.160;18.170;2023-01-24T05:44:34;103818.23;;;-0.39;82.34
76551;BME280;65393;53.160;18.170;2023-01-24T05:47:02;103823.22;;;-0.37;82.33
76551;BME280;65393;53.160;18.170;2023-01-24T05:49:33;103829.21;;;-0.36;82.30
76551;BME280;65393;53.160;18.170;2023-01-24T05:52:00;103837.35;;;-0.37;82.63
76551;BME280;65393;53.160;18.170;2023-01-24T05:54:43;103840.56;;;-0.39;82.36
76551;BME280;65393;53.160;18.170;2023-01-24T05:57:30;103838.55;;;-0.38;82.16
76551;BME280;65393;53.160;18.170;2023-01-24T06:00:16;103837.15;;;-0.35;82.16
76551;BME280;65393;53.160;18.170;2023-01-24T06:03:03;103839.76;;;-0.32;82.08
76551;BME280;65393;53.160;18.170;2023-01-24T06:05:30;103840.19;;;-0.30;82.39
76551;BME280;65393;53.160;18.170;2023-01-24T06:07:57;103836.50;;;-0.31;82.08
76551;BME280;65393;53.160;18.170;2023-01-24T06:10:23;103842.32;;;-0.36;81.78
76551;BME280;65393;53.160;18.170;2023-01-24T06:12:59;103841.48;;;-0.38;82.13
76551;BME280;65393;53.160;18.170;2023-01-24T06:15:26;103848.51;;;-0.38;82.21
76551;BME280;65393;53.160;18.170;2023-01-24T06:17:53;103850.11;;;-0.37;81.79
76551;BME280;65393;53.160;18.170;2023-01-24T06:20:20;103846.23;;;-0.35;82.05
76551;BME280;65393;53.160;18.170;2023-01-24T06:23:02;103846.16;;;-0.33;81.56
76551;BME280;65393;53.160;18.170;2023-01-24T06:25:30;103856.05;;;-0.34;81.89
76551;BME280;65393;53.160;18.170;2023-01-24T06:27:57;103861.73;;;-0.35;81.46
76551;BME280;65393;53.160;18.170;2023-01-24T06:30:24;103863.74;;;-0.34;81.57
76551;BME280;65393;53.160;18.170;2023-01-24T06:33:22;103860.04;;;-0.32;81.78
76551;BME280;65393;53.160;18.170;2023-01-24T06:38:31;103859.83;;;-0.29;81.49
76551;BME280;65393;53.160;18.170;2023-01-24T06:41:00;103864.83;;;-0.27;81.30
76551;BME280;65393;53.160;18.170;2023-01-24T06:43:28;103869.61;;;-0.26;81.21
76551;BME280;65393;53.160;18.170;2023-01-24T06:45:55;103872.22;;;-0.26;81.14
76551;BME280;65393;53.160;18.170;2023-01-24T06:48:22;103874.73;;;-0.27;81.14
76551;BME280;65393;53.160;18.170;2023-01-24T06:50:49;103879.19;;;-0.29;81.03
76551;BME280;65393;53.160;18.170;2023-01-24T06:53:15;103881.36;;;-0.27;81.74
76551;BME280;65393;53.160;18.170;2023-01-24T06:55:45;103880.27;;;-0.25;81.37
76551;BME280;65393;53.160;18.170;2023-01-24T06:58:12;103886.77;;;-0.28;81.80
76551;BME280;65393;53.160;18.170;2023-01-24T07:00:39;103894.44;;;-0.31;81.45
76551;BME280;65393;53.160;18.170;2023-01-24T07:03:07;103895.14;;;-0.31;81.36
76551;BME280;65393;53.160;18.170;2023-01-24T07:05:36;103895.28;;;-0.31;81.13
76551;BME280;65393;53.160;18.170;2023-01-24T07:08:04;103893.23;;;-0.31;81.60
76551;BME280;65393;53.160;18.170;2023-01-24T07:10:32;103892.18;;;-0.31;81.03
76551;BME280;65393;53.160;18.170;2023-01-24T07:12:59;103891.02;;;-0.29;80.94
76551;BME280;65393;53.160;18.170;2023-01-24T07:15:26;103889.19;;;-0.28;80.90
76551;BME280;65393;53.160;18.170;2023-01-24T07:17:53;103889.15;;;-0.29;81.24
76551;BME280;65393;53.160;18.170;2023-01-24T07:20:20;103890.98;;;-0.30;81.41
76551;BME280;65393;53.160;18.170;2023-01-24T07:22:47;103893.52;;;-0.28;81.13
76551;BME280;65393;53.160;18.170;2023-01-24T07:25:17;103890.42;;;-0.25;81.69
76551;BME280;65393;53.160;18.170;2023-01-24T07:27:45;103885.11;;;-0.23;81.22
76551;BME280;65393;53.160;18.170;2023-01-24T07:30:12;103883.26;;;-0.22;81.14
76551;BME280;65393;53.160;18.170;2023-01-24T07:32:39;103881.36;;;-0.22;81.49
76551;BME280;65393;53.160;18.170;2023-01-24T07:35:06;103884.13;;;-0.19;81.24
76551;BME280;65393;53.160;18.170;2023-01-24T07:37:33;103877.27;;;-0.17;81.43
76551;BME280;65393;53.160;18.170;2023-01-24T07:40:00;103876.95;;;-0.13;81.38
76551;BME280;65393;53.160;18.170;2023-01-24T07:42:27;103872.46;;;-0.09;81.21
76551;BME280;65393;53.160;18.170;2023-01-24T07:44:53;103876.23;;;-0.05;81.11
76551;BME280;65393;53.160;18.170;2023-01-24T07:47:23;103874.30;;;-0.02;81.04
76551;BME280;65393;53.160;18.170;2023-01-24T07:49:50;103870.34;;;-0.00;80.79
76551;BME280;65393;53.160;18.170;2023-01-24T07:52:17;103875.08;;;0.04;81.15
76551;BME280;65393;53.160;18.170;2023-01-24T07:54:43;103876.31;;;0.10;81.29
76551;BME280;65393;53.160;18.170;2023-01-24T07:57:10;103876.20;;;0.15;80.92
76551;BME280;65393;53.160;18.170;2023-01-24T07:59:37;103874.89;;;0.19;80.67
76551;BME280;65393;53.160;18.170;2023-01-24T08:02:03;103880.19;;;0.23;80.80
76551;BME280;65393;53.160;18.170;2023-01-24T08:04:30;103886.44;;;0.23;80.56
76551;BME280;65393;53.160;18.170;2023-01-24T08:06:57;103888.23;;;0.24;80.86
76551;BME280;65393;53.160;18.170;2023-01-24T08:09:42;103886.35;;;0.24;80.90
76551;BME280;65393;53.160;18.170;2023-01-24T08:12:09;103885.73;;;0.29;80.61
76551;BME280;65393;53.160;18.170;2023-01-24T08:14:36;103892.34;;;0.32;80.72
76551;BME280;65393;53.160;18.170;2023-01-24T08:17:03;103897.42;;;0.35;80.44
76551;BME280;65393;53.160;18.170;2023-01-24T08:19:29;103904.27;;;0.35;80.50
76551;BME280;65393;53.160;18.170;2023-01-24T08:21:58;103914.05;;;0.36;80.74
76551;BME280;65393;53.160;18.170;2023-01-24T08:24:24;103909.93;;;0.43;80.66
76551;BME280;65393;53.160;18.170;2023-01-24T08:26:51;103910.57;;;0.48;80.59
76551;BME280;65393;53.160;18.170;2023-01-24T08:29:18;103906.98;;;0.50;80.41
76551;BME280;65393;53.160;18.170;2023-01-24T08:31:44;103913.73;;;0.46;80.68
76551;BME280;65393;53.160;18.170;2023-01-24T08:34:11;103913.79;;;0.40;80.28
76551;BME280;65393;53.160;18.170;2023-01-24T08:36:38;103919.01;;;0.40;80.26
76551;BME280;65393;53.160;18.170;2023-01-24T08:39:05;103925.81;;;0.33;80.48
76551;BME280;65393;53.160;18.170;2023-01-24T08:41:32;103928.17;;;0.28;80.83
76551;BME280;65393;53.160;18.170;2023-01-24T08:43:59;103928.47;;;0.25;80.87
76551;BME280;65393;53.160;18.170;2023-01-24T08:46:25;103930.53;;;0.24;80.63
76551;BME280;65393;53.160;18.170;2023-01-24T08:48:52;103934.70;;;0.27;80.41
76551;BME280;65393;53.160;18.170;2023-01-24T08:51:19;103933.94;;;0.32;80.63
76551;BME280;65393;53.160;18.170;2023-01-24T08:53:45;103937.40;;;0.38;80.62
76551;BME280;65393;53.160;18.170;2023-01-24T08:56:12;103938.27;;;0.41;80.74
76551;BME280;65393;53.160;18.170;2023-01-24T08:58:39;103935.29;;;0.44;80.58
76551;BME280;65393;53.160;18.170;2023-01-24T09:01:07;103934.81;;;0.48;80.31
76551;BME280;65393;53.160;18.170;2023-01-24T09:03:34;103937.66;;;0.52;80.49
76551;BME280;65393;53.160;18.170;2023-01-24T09:06:01;103938.01;;;0.48;80.50
76551;BME280;65393;53.160;18.170;2023-01-24T09:08:29;103938.25;;;0.46;79.95
76551;BME280;65393;53.160;18.170;2023-01-24T09:11:00;103937.51;;;0.46;80.28
76551;BME280;65393;53.160;18.170;2023-01-24T09:13:27;103938.72;;;0.46;80.64
76551;BME280;65393;53.160;18.170;2023-01-24T09:15:57;103941.65;;;0.51;80.31
76551;BME280;65393;53.160;18.170;2023-01-24T09:18:24;103945.15;;;0.52;78.45
76551;BME280;65393;53.160;18.170;2023-01-24T09:20:51;103942.08;;;0.53;79.79
76551;BME280;65393;53.160;18.170;2023-01-24T09:23:18;103946.48;;;0.53;79.71
76551;BME280;65393;53.160;18.170;2023-01-24T09:25:51;103941.33;;;0.55;79.95
76551;BME280;65393;53.160;18.170;2023-01-24T09:28:21;103942.97;;;0.56;79.41
76551;BME280;65393;53.160;18.170;2023-01-24T09:30:48;103941.45;;;0.57;79.18
76551;BME280;65393;53.160;18.170;2023-01-24T09:33:17;103942.10;;;0.53;79.08
76551;BME280;65393;53.160;18.170;2023-01-24T09:35:54;103938.33;;;0.48;79.65
76551;BME280;65393;53.160;18.170;2023-01-24T09:38:24;103933.91;;;0.47;79.31
76551;BME280;65393;53.160;18.170;2023-01-24T09:46:16;103929.80;;;0.68;78.98
76551;BME280;65393;53.160;18.170;2023-01-24T09:48:47;103930.86;;;0.71;79.11
76551;BME280;65393;53.160;18.170;2023-01-24T09:51:24;103927.87;;;0.71;78.25
76551;BME280;65393;53.160;18.170;2023-01-24T09:54:00;103931.20;;;0.75;78.94
76551;BME280;65393;53.160;18.170;2023-01-24T09:56:34;103930.53;;;0.78;78.11
76551;BME280;65393;53.160;18.170;2023-01-24T10:01:56;103938.87;;;0.78;77.71
76551;BME280;65393;53.160;18.170;2023-01-24T10:20:17;103929.75;;;0.77;78.36
76551;BME280;65393;53.160;18.170;2023-01-24T10:26:01;103925.52;;;0.86;78.52
76551;BME280;65393;53.160;18.170;2023-01-24T10:28:38;103920.83;;;0.90;78.38
76551;BME280;65393;53.160;18.170;2023-01-24T10:33:44;103913.59;;;1.02;77.87
76551;BME280;65393;53.160;18.170;2023-01-24T10:39:10;103908.45;;;1.11;77.74
76551;BME280;65393;53.160;18.170;2023-01-24T10:41:37;103904.13;;;1.08;77.86
76551;BME280;65393;53.160;18.170;2023-01-24T10:44:08;103898.45;;;1.14;77.81
76551;BME280;65393;53.160;18.170;2023-01-24T10:47:04;103897.27;;;1.22;77.62
76551;BME280;65393;53.160;18.170;2023-01-24T10:49:41;103891.79;;;1.24;77.61
76551;BME280;65393;53.160;18.170;2023-01-24T10:57:49;103884.55;;;1.36;77.13
76551;BME280;65393;53.160;18.170;2023-01-24T11:00:29;103886.42;;;1.41;77.39
76551;BME280;65393;53.160;18.170;2023-01-24T11:03:03;103884.88;;;1.46;77.21
76551;BME280;65393;53.160;18.170;2023-01-24T11:05:49;103882.92;;;1.53;76.84
76551;BME280;65393;53.160;18.170;2023-01-24T11:08:33;103877.92;;;1.55;77.14
76551;BME280;65393;53.160;18.170;2023-01-24T11:11:00;103871.40;;;1.54;76.94
76551;BME280;65393;53.160;18.170;2023-01-24T11:13:39;103872.17;;;1.55;76.55
76551;BME280;65393;53.160;18.170;2023-01-24T11:21:17;103864.96;;;1.51;76.75
76551;BME280;65393;53.160;18.170;2023-01-24T11:23:45;103863.81;;;1.48;77.14
76551;BME280;65393;53.160;18.170;2023-01-24T11:26:25;103852.69;;;1.46;76.69
76551;BME280;65393;53.160;18.170;2023-01-24T11:29:05;103846.77;;;1.51;77.07
76551;BME280;65393;53.160;18.170;2023-01-24T11:31:38;103844.78;;;1.53;76.81
76551;BME280;65393;53.160;18.170;2023-01-24T11:34:27;103844.44;;;1.53;76.92
76551;BME280;65393;53.160;18.170;2023-01-24T11:47:33;103829.27;;;1.62;75.95
76551;BME280;65393;53.160;18.170;2023-01-24T11:50:03;103833.83;;;1.55;76.51
76551;BME280;65393;53.160;18.170;2023-01-24T11:52:52;103830.25;;;1.56;76.60
76551;BME280;65393;53.160;18.170;2023-01-24T11:55:27;103833.58;;;1.64;76.43
76551;BME280;65393;53.160;18.170;2023-01-24T12:06:20;103840.23;;;1.49;74.91
76551;BME280;65393;53.160;18.170;2023-01-24T12:09:02;103838.54;;;1.40;75.82
76551;BME280;65393;53.160;18.170;2023-01-24T12:11:57;103834.94;;;1.38;75.67
76551;BME280;65393;53.160;18.170;2023-01-24T12:17:19;103831.98;;;1.31;76.27
76551;BME280;65393;53.160;18.170;2023-01-24T12:22:35;103835.08;;;1.13;76.22
76551;BME280;65393;53.160;18.170;2023-01-24T12:25:13;103826.65;;;1.12;76.55
76551;BME280;65393;53.160;18.170;2023-01-24T12:27:45;103831.59;;;1.13;76.47
76551;BME280;65393;53.160;18.170;2023-01-24T12:35:57;103834.02;;;1.13;76.28
76551;BME280;65393;53.160;18.170;2023-01-24T12:38:36;103834.70;;;1.16;76.58
76551;BME280;65393;53.160;18.170;2023-01-24T12:41:28;103835.45;;;1.20;76.60
76551;BME280;65393;53.160;18.170;2023-01-24T12:44:22;103832.77;;;1.29;76.42
76551;BME280;65393;53.160;18.170;2023-01-24T12:50:25;103828.25;;;1.30;76.14
76551;BME280;65393;53.160;18.170;2023-01-24T12:56:19;103829.23;;;1.25;76.40
76551;BME280;65393;53.160;18.170;2023-01-24T12:58:49;103827.02;;;1.23;76.67
76551;BME280;65393;53.160;18.170;2023-01-24T13:04:12;103814.95;;;1.23;76.20
76551;BME280;65393;53.160;18.170;2023-01-24T13:11:57;103809.39;;;1.34;76.44
76551;BME280;65393;53.160;18.170;2023-01-24T13:14:40;103809.41;;;1.35;76.48
76551;BME280;65393;53.160;18.170;2023-01-24T13:22:52;103797.41;;;1.29;76.00
76551;BME280;65393;53.160;18.170;2023-01-24T13:33:53;103788.63;;;1.39;76.79
76551;BME280;65393;53.160;18.170;2023-01-24T13:36:24;103782.98;;;1.38;76.54
76551;BME280;65393;53.160;18.170;2023-01-24T13:38:53;103782.86;;;1.36;76.23
76551;BME280;65393;53.160;18.170;2023-01-24T13:47:01;103791.80;;;1.25;75.73
76551;BME280;65393;53.160;18.170;2023-01-24T13:51:56;103791.66;;;1.12;76.08
76551;BME280;65393;53.160;18.170;2023-01-24T13:54:42;103792.37;;;1.05;76.20
76551;BME280;65393;53.160;18.170;2023-01-24T13:57:26;103788.09;;;1.00;76.31
76551;BME280;65393;53.160;18.170;2023-01-24T14:07:58;103786.45;;;0.75;75.39
76551;BME280;65393;53.160;18.170;2023-01-24T14:10:36;103779.39;;;0.73;76.04
76551;BME280;65393;53.160;18.170;2023-01-24T14:13:05;103783.80;;;0.70;76.04
76551;BME280;65393;53.160;18.170;2023-01-24T14:15:40;103780.71;;;0.65;75.91
76551;BME280;65393;53.160;18.170;2023-01-24T14:21:33;103785.77;;;0.58;75.86
76551;BME280;65393;53.160;18.170;2023-01-24T14:24:19;103777.11;;;0.56;75.83
76551;BME280;65393;53.160;18.170;2023-01-24T14:26:58;103771.33;;;0.52;75.85
76551;BME280;65393;53.160;18.170;2023-01-24T14:29:39;103769.19;;;0.45;75.94
76551;BME280;65393;53.160;18.170;2023-01-24T14:32:25;103771.30;;;0.42;76.00
76551;BME280;65393;53.160;18.170;2023-01-24T14:35:12;103773.84;;;0.44;76.22
76551;BME280;65393;53.160;18.170;2023-01-24T14:37:46;103775.33;;;0.42;76.08
76551;BME280;65393;53.160;18.170;2023-01-24T14:40:25;103776.14;;;0.41;76.01
76551;BME280;65393;53.160;18.170;2023-01-24T14:43:03;103771.09;;;0.38;76.23
76551;BME280;65393;53.160;18.170;2023-01-24T14:45:33;103768.17;;;0.35;76.19
76551;BME280;65393;53.160;18.170;2023-01-24T14:48:05;103773.16;;;0.34;76.22
76551;BME280;65393;53.160;18.170;2023-01-24T14:50:35;103782.19;;;0.33;75.62
76551;BME280;65393;53.160;18.170;2023-01-24T14:53:45;103784.88;;;0.31;76.27
76551;BME280;65393;53.160;18.170;2023-01-24T14:56:13;103784.21;;;0.28;76.17
76551;BME280;65393;53.160;18.170;2023-01-24T14:58:41;103786.07;;;0.24;75.93
76551;BME280;65393;53.160;18.170;2023-01-24T15:01:27;103789.64;;;0.19;75.63
76551;BME280;65393;53.160;18.170;2023-01-24T15:03:55;103791.66;;;0.14;75.76
76551;BME280;65393;53.160;18.170;2023-01-24T15:06:26;103794.27;;;0.11;75.67
76551;BME280;65393;53.160;18.170;2023-01-24T15:08:56;103795.66;;;0.10;76.28
76551;BME280;65393;53.160;18.170;2023-01-24T15:11:32;103798.40;;;0.10;75.92
76551;BME280;65393;53.160;18.170;2023-01-24T15:14:03;103805.05;;;0.10;76.47